Time;durP1;ratioP1;P1;durP2;ratioP2;P2;SDS_P1;SDS_P2;PMS_P1;PMS_P2;Temp;Humidity;BMP_temperature;BMP_pressure;BME280_temperature;BME280_humidity;BME280_pressure;Samples;Min_cycle;Max_cycle;Signal;HPM_P1;HPM_P2
2022/07/09 00:00:29;;;;;;;7.60;7.10;;;;;;;;;;5046945;28;20123;-67
2022/07/09 00:02:54;;;;;;;7.95;7.40;;;;;;;;;;5029535;28;20421;-67
2022/07/09 00:05:20;;;;;;;6.80;6.30;;;;;;;;;;5047821;28;20434;-68
2022/07/09 00:07:45;;;;;;;7.45;6.95;;;;;;;;;;5047181;28;20036;-66
2022/07/09 00:10:11;;;;;;;7.05;6.55;;;;;;;;;;5048051;28;20041;-66
2022/07/09 00:12:36;;;;;;;7.85;7.35;;;;;;;;;;5029007;28;20037;-66
2022/07/09 00:15:02;;;;;;;7.82;7.32;;;;;;;;;;5047197;28;20024;-66
2022/07/09 00:17:29;;;;;;;7.70;7.20;;;;;;;;;;5045754;28;20029;-67
2022/07/09 00:19:56;;;;;;;7.63;7.13;;;;;;;;;;5047320;28;20048;-67
2022/07/09 00:22:21;;;;;;;7.35;6.85;;;;;;;;;;5048605;28;20039;-66
2022/07/09 00:24:46;;;;;;;7.93;7.43;;;;;;;;;;5045913;28;20032;-69
2022/07/09 00:27:12;;;;;;;8.88;8.27;;;;;;;;;;5047955;28;20044;-69
2022/07/09 00:29:37;;;;;;;9.23;8.63;;;;;;;;;;5047397;28;20091;-69
2022/07/09 00:32:03;;;;;;;17.92;16.92;;;;;;;;;;5047993;28;20094;-68
2022/07/09 00:34:28;;;;;;;27.02;25.58;;;;;;;;;;5046688;28;20028;-68
2022/07/09 00:36:53;;;;;;;30.20;28.63;;;;;;;;;;5046566;28;20049;-68
2022/07/09 00:39:19;;;;;;;31.48;29.77;;;;;;;;;;5047708;28;20037;-67
2022/07/09 00:41:44;;;;;;;27.63;26.05;;;;;;;;;;5047479;28;20244;-68
2022/07/09 00:44:09;;;;;;;31.35;29.70;;;;;;;;;;5047685;28;20033;-67
2022/07/09 00:46:35;;;;;;;28.63;27.05;;;;;;;;;;5046603;28;20033;-68
2022/07/09 00:49:06;;;;;;;20.60;19.50;;;;;;;;;;5047599;28;20686;-67
2022/07/09 00:51:32;;;;;;;22.33;21.13;;;;;;;;;;5046702;28;20045;-67
2022/07/09 00:53:59;;;;;;;23.92;22.65;;;;;;;;;;5047505;28;20108;-67
2022/07/09 00:56:27;;;;;;;23.90;22.63;;;;;;;;;;5046992;28;20037;-67
2022/07/09 00:58:52;;;;;;;21.05;19.90;;;;;;;;;;5047090;28;20021;-67
2022/07/09 01:01:18;;;;;;;19.33;18.25;;;;;;;;;;5046849;28;20374;-68
2022/07/09 01:03:43;;;;;;;19.27;18.15;;;;;;;;;;5046196;28;20459;-68
2022/07/09 01:06:09;;;;;;;19.60;18.52;;;;;;;;;;5046256;28;20047;-68
2022/07/09 01:08:35;;;;;;;19.88;18.77;;;;;;;;;;5046970;28;20029;-68
2022/07/09 01:11:00;;;;;;;19.17;18.13;;;;;;;;;;5046853;28;20413;-67
2022/07/09 01:13:26;;;;;;;18.92;17.88;;;;;;;;;;5046558;28;20127;-68
2022/07/09 01:15:52;;;;;;;17.83;16.83;;;;;;;;;;5047351;28;20021;-68
2022/07/09 01:18:18;;;;;;;17.00;16.05;;;;;;;;;;5046355;28;20461;-69
2022/07/09 01:20:43;;;;;;;17.00;16.05;;;;;;;;;;5046390;28;20428;-68
2022/07/09 01:23:09;;;;;;;16.00;15.10;;;;;;;;;;5046230;28;20052;-68
2022/07/09 01:25:37;;;;;;;16.90;15.95;;;;;;;;;;5045888;28;20076;-68
2022/07/09 01:28:07;;;;;;;14.05;13.25;;;;;;;;;;5046436;28;20044;-69
2022/07/09 01:30:34;;;;;;;12.30;11.50;;;;;;;;;;5046755;28;20047;-69
2022/07/09 01:33:00;;;;;;;11.73;10.95;;;;;;;;;;5046000;28;20454;-68
2022/07/09 01:35:26;;;;;;;9.90;9.30;;;;;;;;;;5045952;28;20043;-67
2022/07/09 01:37:52;;;;;;;12.00;11.30;;;;;;;;;;5045891;28;20040;-67
2022/07/09 01:40:17;;;;;;;10.70;10.02;;;;;;;;;;5046250;28;20112;-69
2022/07/09 01:42:43;;;;;;;10.15;9.35;;;;;;;;;;5046135;28;20387;-68
2022/07/09 01:45:09;;;;;;;8.80;8.23;;;;;;;;;;5046886;28;20095;-67
2022/07/09 01:47:34;;;;;;;9.07;8.48;;;;;;;;;;5046298;28;20041;-68
2022/07/09 01:49:59;;;;;;;7.25;6.75;;;;;;;;;;5046634;28;20366;-68
2022/07/09 01:52:25;;;;;;;6.05;5.65;;;;;;;;;;5044962;28;20186;-69
2022/07/09 01:54:51;;;;;;;6.78;6.15;;;;;;;;;;5045808;28;20052;-68
2022/07/09 01:57:16;;;;;;;5.97;5.57;;;;;;;;;;5045969;28;20024;-68
2022/07/09 01:59:41;;;;;;;6.25;5.85;;;;;;;;;;5045247;28;20025;-68
2022/07/09 02:02:07;;;;;;;6.85;6.35;;;;;;;;;;5045714;28;20352;-68
2022/07/09 02:04:32;;;;;;;6.30;5.88;;;;;;;;;;5046307;28;20039;-67
2022/07/09 02:06:58;;;;;;;7.03;6.53;;;;;;;;;;5046150;28;20339;-68
2022/07/09 02:09:23;;;;;;;7.40;6.90;;;;;;;;;;5045253;28;20099;-68
2022/07/09 02:11:49;;;;;;;7.55;7.05;;;;;;;;;;5044868;28;20039;-68
2022/07/09 02:14:14;;;;;;;7.88;7.38;;;;;;;;;;5045614;28;20021;-67
2022/07/09 02:16:40;;;;;;;7.55;7.05;;;;;;;;;;5045402;28;20529;-67
2022/07/09 02:19:06;;;;;;;7.60;7.10;;;;;;;;;;5045256;28;20067;-67
2022/07/09 02:21:32;;;;;;;7.68;7.18;;;;;;;;;;5045685;28;20443;-68
2022/07/09 02:23:58;;;;;;;7.28;6.78;;;;;;;;;;5045588;28;20041;-69
2022/07/09 02:26:25;;;;;;;8.07;7.57;;;;;;;;;;5045042;28;20028;-69
2022/07/09 02:28:51;;;;;;;9.30;8.20;;;;;;;;;;5035200;28;20090;-68
2022/07/09 02:31:17;;;;;;;7.95;7.35;;;;;;;;;;5044211;28;20086;-68
2022/07/09 02:33:42;;;;;;;9.40;7.78;;;;;;;;;;5045581;28;20405;-68
2022/07/09 02:36:07;;;;;;;8.38;7.78;;;;;;;;;;5043894;28;20388;-68
2022/07/09 02:38:33;;;;;;;7.72;7.22;;;;;;;;;;5045954;28;20088;-67
2022/07/09 02:40:58;;;;;;;8.23;7.63;;;;;;;;;;5044064;28;20051;-68
2022/07/09 02:43:24;;;;;;;6.78;6.28;;;;;;;;;;5045212;28;20347;-68
2022/07/09 02:45:51;;;;;;;7.20;6.70;;;;;;;;;;5045414;28;20017;-68
2022/07/09 02:48:16;;;;;;;6.38;5.97;;;;;;;;;;5043372;28;20111;-68
2022/07/09 02:50:41;;;;;;;6.82;6.18;;;;;;;;;;5045491;28;20115;-68
2022/07/09 02:53:07;;;;;;;7.07;6.57;;;;;;;;;;5043962;28;20032;-68
2022/07/09 02:55:32;;;;;;;6.97;6.47;;;;;;;;;;5045584;28;20029;-68
2022/07/09 02:57:57;;;;;;;6.70;6.20;;;;;;;;;;5044800;28;20036;-67
2022/07/09 03:00:23;;;;;;;6.65;6.15;;;;;;;;;;5045023;28;20033;-67
2022/07/09 03:02:48;;;;;;;7.07;6.57;;;;;;;;;;5044172;28;20127;-68
2022/07/09 03:05:13;;;;;;;6.75;6.25;;;;;;;;;;5043372;28;20494;-67
2022/07/09 03:07:39;;;;;;;6.97;6.47;;;;;;;;;;5044718;28;20466;-68
2022/07/09 03:10:05;;;;;;;6.65;6.15;;;;;;;;;;5045419;28;20466;-67
2022/07/09 03:12:30;;;;;;;7.43;6.93;;;;;;;;;;5045271;28;20025;-67
2022/07/09 03:14:56;;;;;;;6.78;6.28;;;;;;;;;;5043620;28;20025;-68
2022/07/09 03:17:22;;;;;;;7.90;7.40;;;;;;;;;;5044840;28;20527;-67
2022/07/09 03:19:47;;;;;;;7.53;7.03;;;;;;;;;;5044668;28;20100;-68
2022/07/09 03:22:13;;;;;;;6.95;6.45;;;;;;;;;;5043968;28;20033;-67
2022/07/09 03:24:38;;;;;;;7.18;6.68;;;;;;;;;;5044675;28;20036;-68
2022/07/09 03:27:04;;;;;;;7.30;6.80;;;;;;;;;;5044618;28;20106;-68
2022/07/09 03:29:29;;;;;;;7.00;6.50;;;;;;;;;;5044814;28;20041;-67
2022/07/09 03:31:55;;;;;;;7.90;7.40;;;;;;;;;;5044159;28;20060;-67
2022/07/09 03:34:20;;;;;;;7.93;7.43;;;;;;;;;;5044881;28;20538;-67
2022/07/09 03:36:45;;;;;;;8.13;7.53;;;;;;;;;;5044421;28;20084;-67
2022/07/09 03:39:11;;;;;;;6.68;6.22;;;;;;;;;;5043553;28;20154;-67
2022/07/09 03:41:36;;;;;;;8.13;7.57;;;;;;;;;;5043511;28;20064;-67
2022/07/09 03:44:01;;;;;;;7.30;6.80;;;;;;;;;;5045298;28;20039;-67
2022/07/09 03:46:27;;;;;;;8.52;7.93;;;;;;;;;;5045141;28;20037;-67
2022/07/09 03:48:52;;;;;;;7.38;6.88;;;;;;;;;;5043692;28;20045;-66
2022/07/09 03:51:17;;;;;;;6.90;6.40;;;;;;;;;;5042715;28;20060;-67
2022/07/09 03:53:43;;;;;;;6.45;6.03;;;;;;;;;;5043361;28;20047;-67
2022/07/09 03:56:08;;;;;;;6.10;5.70;;;;;;;;;;5042914;28;20020;-67
2022/07/09 03:58:34;;;;;;;6.40;6.00;;;;;;;;;;5044417;28;20083;-68
2022/07/09 04:00:59;;;;;;;5.57;5.18;;;;;;;;;;5047103;28;20031;-66
2022/07/09 04:03:24;;;;;;;6.55;6.07;;;;;;;;;;5047819;28;20033;-66
2022/07/09 04:05:50;;;;;;;6.00;5.50;;;;;;;;;;5046819;28;20091;-66
2022/07/09 04:08:15;;;;;;;6.88;6.38;;;;;;;;;;5048005;28;20096;-66
2022/07/09 04:10:40;;;;;;;5.78;5.38;;;;;;;;;;5048131;28;20327;-66
2022/07/09 04:13:06;;;;;;;12.38;5.25;;;;;;;;;;5047007;28;20102;-66
2022/07/09 04:15:32;;;;;;;5.80;5.40;;;;;;;;;;5046096;28;20450;-66
2022/07/09 04:17:58;;;;;;;5.63;5.22;;;;;;;;;;5045128;28;20040;-66
2022/07/09 04:20:25;;;;;;;7.13;6.55;;;;;;;;;;5047650;28;20044;-66
2022/07/09 04:22:51;;;;;;;5.47;5.07;;;;;;;;;;5047699;28;20063;-67
2022/07/09 04:25:16;;;;;;;6.75;6.25;;;;;;;;;;5049377;28;20053;-67
2022/07/09 04:27:42;;;;;;;6.47;5.97;;;;;;;;;;5029262;28;20543;-66
2022/07/09 04:30:09;;;;;;;6.15;5.75;;;;;;;;;;5045836;28;20102;-66
2022/07/09 04:32:34;;;;;;;6.22;5.82;;;;;;;;;;5047356;28;20028;-66
2022/07/09 04:34:59;;;;;;;5.88;5.47;;;;;;;;;;5045980;28;20036;-65
2022/07/09 04:37:25;;;;;;;6.68;6.20;;;;;;;;;;5047198;28;20044;-66
2022/07/09 04:39:50;;;;;;;6.53;6.03;;;;;;;;;;5047884;28;20036;-66
2022/07/09 04:42:15;;;;;;;6.45;6.03;;;;;;;;;;5047324;28;20039;-66
2022/07/09 04:44:42;;;;;;;5.78;5.38;;;;;;;;;;5047640;28;20378;-66
2022/07/09 04:47:09;;;;;;;6.15;5.75;;;;;;;;;;5043588;28;20048;-66
2022/07/09 04:49:34;;;;;;;5.95;5.55;;;;;;;;;;5044451;28;20033;-66
2022/07/09 04:51:59;;;;;;;5.75;5.35;;;;;;;;;;5046295;28;20032;-66
2022/07/09 04:54:25;;;;;;;6.40;6.00;;;;;;;;;;5046851;28;20111;-66
2022/07/09 04:56:50;;;;;;;5.32;4.93;;;;;;;;;;5045670;28;20430;-66
2022/07/09 04:59:16;;;;;;;6.38;5.97;;;;;;;;;;5046351;28;20051;-65
2022/07/09 05:01:41;;;;;;;6.70;6.20;;;;;;;;;;5046399;28;20029;-66
2022/07/09 05:04:07;;;;;;;6.38;5.88;;;;;;;;;;5047411;28;20025;-65
2022/07/09 05:06:32;;;;;;;5.85;5.45;;;;;;;;;;5046042;28;20041;-65
2022/07/09 05:08:57;;;;;;;6.95;6.45;;;;;;;;;;5046936;28;20021;-67
2022/07/09 05:11:23;;;;;;;7.03;6.53;;;;;;;;;;5047977;28;20062;-65
2022/07/09 05:13:48;;;;;;;7.45;6.85;;;;;;;;;;5048068;28;20052;-65
2022/07/09 05:16:14;;;;;;;7.75;6.90;;;;;;;;;;5047899;28;20031;-65
2022/07/09 05:18:39;;;;;;;8.20;7.60;;;;;;;;;;5047070;28;20588;-68
2022/07/09 05:21:05;;;;;;;8.65;8.05;;;;;;;;;;5046768;28;20291;-65
2022/07/09 05:23:30;;;;;;;8.43;7.82;;;;;;;;;;5047561;28;20051;-65
2022/07/09 05:25:56;;;;;;;7.72;7.22;;;;;;;;;;5046666;28;20083;-65
2022/07/09 05:28:21;;;;;;;7.65;7.15;;;;;;;;;;5047098;28;20050;-66
2022/07/09 05:30:46;;;;;;;7.28;6.78;;;;;;;;;;5047461;28;20534;-65
2022/07/09 05:33:12;;;;;;;7.70;7.10;;;;;;;;;;5046124;28;20044;-66
2022/07/09 05:35:38;;;;;;;7.50;7.00;;;;;;;;;;5046046;28;20040;-65
2022/07/09 05:38:03;;;;;;;8.18;7.47;;;;;;;;;;5047280;28;20028;-66
2022/07/09 05:40:29;;;;;;;8.32;7.72;;;;;;;;;;5047428;28;20053;-66
2022/07/09 05:42:54;;;;;;;9.75;9.10;;;;;;;;;;5045490;28;20033;-66
2022/07/09 05:45:19;;;;;;;8.25;7.75;;;;;;;;;;5046861;28;20048;-66
2022/07/09 05:47:45;;;;;;;9.82;9.13;;;;;;;;;;5046934;28;20029;-66
2022/07/09 05:50:10;;;;;;;8.82;8.23;;;;;;;;;;5046921;28;20561;-65
2022/07/09 05:52:36;;;;;;;9.65;9.05;;;;;;;;;;5046965;28;20114;-65
2022/07/09 05:55:03;;;;;;;10.52;9.82;;;;;;;;;;5046402;28;20525;-64
2022/07/09 05:57:28;;;;;;;9.07;8.48;;;;;;;;;;5046171;28;20092;-64
2022/07/09 05:59:54;;;;;;;9.73;9.13;;;;;;;;;;5045311;28;20028;-65
2022/07/09 06:02:19;;;;;;;10.80;10.00;;;;;;;;;;5046316;28;20119;-64
2022/07/09 06:04:45;;;;;;;9.77;9.18;;;;;;;;;;5045698;28;20414;-64
2022/07/09 06:07:10;;;;;;;9.45;8.85;;;;;;;;;;5046634;28;20614;-64
2022/07/09 06:09:35;;;;;;;9.35;8.75;;;;;;;;;;5045789;28;20037;-64
2022/07/09 06:12:01;;;;;;;9.07;8.48;;;;;;;;;;5045540;28;20048;-65
2022/07/09 06:14:26;;;;;;;9.40;8.77;;;;;;;;;;5046641;28;20032;-64
2022/07/09 06:16:53;;;;;;;10.85;10.15;;;;;;;;;;5045203;28;20678;-64
2022/07/09 06:19:18;;;;;;;10.27;9.68;;;;;;;;;;5044645;28;20033;-64
2022/07/09 06:21:43;;;;;;;11.80;11.10;;;;;;;;;;5044810;28;20166;-64
2022/07/09 06:24:09;;;;;;;13.13;10.63;;;;;;;;;;5045764;28;20116;-64
2022/07/09 06:26:34;;;;;;;14.18;13.30;;;;;;;;;;5045838;28;20358;-63
2022/07/09 06:29:00;;;;;;;16.13;15.13;;;;;;;;;;5045447;28;20106;-65
2022/07/09 06:31:26;;;;;;;13.05;12.02;;;;;;;;;;5045611;28;20071;-65
2022/07/09 06:33:52;;;;;;;11.68;10.98;;;;;;;;;;5045466;28;20028;-65
2022/07/09 06:36:17;;;;;;;15.15;14.25;;;;;;;;;;5045318;28;20028;-64
2022/07/09 06:41:26;;;;;;;19.75;18.58;;;;;;;;;;5044650;28;20577;-64
2022/07/09 06:43:52;;;;;;;19.48;18.38;;;;;;;;;;5046357;28;20036;-65
2022/07/09 06:46:17;;;;;;;15.02;14.18;;;;;;;;;;5045771;28;20033;-61
2022/07/09 06:48:42;;;;;;;18.35;17.35;;;;;;;;;;5045547;28;20454;-63
2022/07/09 06:51:08;;;;;;;18.73;17.73;;;;;;;;;;5044681;28;20029;-63
2022/07/09 06:53:33;;;;;;;18.45;17.27;;;;;;;;;;5045484;28;20398;-64
2022/07/09 06:55:58;;;;;;;18.08;17.08;;;;;;;;;;5044134;28;20052;-65
2022/07/09 06:58:24;;;;;;;16.10;15.20;;;;;;;;;;5042571;28;20029;-63
2022/07/09 07:00:49;;;;;;;17.42;16.42;;;;;;;;;;5044208;28;20470;-64
2022/07/09 07:03:15;;;;;;;16.73;15.75;;;;;;;;;;5044247;28;20078;-63
2022/07/09 07:05:40;;;;;;;17.27;16.08;;;;;;;;;;5042745;28;20375;-64
2022/07/09 07:08:05;;;;;;;16.75;15.85;;;;;;;;;;5043507;28;20052;-64
2022/07/09 07:10:31;;;;;;;16.05;15.15;;;;;;;;;;5040767;28;20051;-64
2022/07/09 07:12:56;;;;;;;17.85;16.85;;;;;;;;;;5042443;28;20432;-64
2022/07/09 07:15:22;;;;;;;15.75;14.85;;;;;;;;;;5041205;28;20538;-63
2022/07/09 07:17:48;;;;;;;17.25;16.27;;;;;;;;;;5043961;28;20478;-64
2022/07/09 07:20:15;;;;;;;18.13;17.13;;;;;;;;;;5043589;28;20025;-67
2022/07/09 07:22:40;;;;;;;15.63;14.73;;;;;;;;;;5044702;28;20245;-68
2022/07/09 07:25:06;;;;;;;15.15;14.25;;;;;;;;;;5044223;28;20565;-68
2022/07/09 07:27:31;;;;;;;12.88;11.82;;;;;;;;;;5043411;28;20036;-68
2022/07/09 07:29:57;;;;;;;12.82;12.05;;;;;;;;;;5045089;28;20041;-68
2022/07/09 07:32:22;;;;;;;11.80;11.10;;;;;;;;;;5042499;28;20359;-69
2022/07/09 07:34:47;;;;;;;17.65;16.65;;;;;;;;;;5047005;28;20032;-68
2022/07/09 07:37:13;;;;;;;17.92;16.90;;;;;;;;;;5047506;28;20146;-68
2022/07/09 07:39:38;;;;;;;22.25;21.05;;;;;;;;;;5048528;28;20214;-68
2022/07/09 07:42:05;;;;;;;19.77;18.65;;;;;;;;;;5048175;28;20051;-68
2022/07/09 07:44:31;;;;;;;25.02;23.63;;;;;;;;;;5047033;28;20489;-67
2022/07/09 07:46:56;;;;;;;19.83;18.73;;;;;;;;;;5047814;28;20142;-67
2022/07/09 07:49:21;;;;;;;20.10;19.00;;;;;;;;;;5048216;28;20056;-68
2022/07/09 07:51:46;;;;;;;24.92;23.63;;;;;;;;;;5046329;28;20127;-68
2022/07/09 07:54:12;;;;;;;25.13;23.73;;;;;;;;;;5047842;28;20106;-68
2022/07/09 07:56:39;;;;;;;24.58;23.27;;;;;;;;;;5047772;28;20029;-68
2022/07/09 07:59:05;;;;;;;21.90;20.70;;;;;;;;;;5047814;28;20028;-68
2022/07/09 08:01:30;;;;;;;21.58;20.40;;;;;;;;;;5044929;28;20040;-68
2022/07/09 08:03:56;;;;;;;25.10;23.70;;;;;;;;;;5047334;28;20040;-68
2022/07/09 08:06:24;;;;;;;31.48;29.58;;;;;;;;;;5049214;28;20104;-68
2022/07/09 08:08:49;;;;;;;22.27;21.08;;;;;;;;;;5049421;28;20093;-67
2022/07/09 08:11:15;;;;;;;27.10;25.70;;;;;;;;;;5049551;28;20036;-69
2022/07/09 08:13:40;;;;;;;26.23;24.83;;;;;;;;;;5049265;28;20531;-68
2022/07/09 08:16:06;;;;;;;32.63;30.92;;;;;;;;;;5047884;28;20462;-68
2022/07/09 08:18:31;;;;;;;32.35;30.45;;;;;;;;;;5048913;28;20131;-68
2022/07/09 08:20:57;;;;;;;29.05;27.52;;;;;;;;;;5049065;28;20033;-68
2022/07/09 08:23:22;;;;;;;31.45;29.77;;;;;;;;;;5049138;28;20033;-68
2022/07/09 08:25:49;;;;;;;35.28;33.38;;;;;;;;;;5048993;28;20037;-68
2022/07/09 08:28:15;;;;;;;29.83;28.23;;;;;;;;;;5049885;28;20056;-68
2022/07/09 08:30:40;;;;;;;29.15;27.63;;;;;;;;;;5048925;28;20069;-68
2022/07/09 08:33:05;;;;;;;29.55;27.95;;;;;;;;;;5048685;28;20044;-68
2022/07/09 08:35:31;;;;;;;34.60;32.83;;;;;;;;;;5048298;28;20178;-68
2022/07/09 08:37:56;;;;;;;38.78;36.78;;;;;;;;;;5049354;28;20096;-68
2022/07/09 08:40:23;;;;;;;42.97;40.72;;;;;;;;;;5048042;28;20029;-68
2022/07/09 08:42:49;;;;;;;39.20;37.20;;;;;;;;;;5049015;28;20048;-68
2022/07/09 08:45:16;;;;;;;41.85;39.72;;;;;;;;;;5048024;28;20029;-68
2022/07/09 08:47:42;;;;;;;36.75;34.85;;;;;;;;;;5049063;28;20029;-68
2022/07/09 08:50:08;;;;;;;42.25;40.08;;;;;;;;;;5049717;28;20044;-69
2022/07/09 08:52:35;;;;;;;38.53;36.53;;;;;;;;;;5048417;28;20047;-69
2022/07/09 08:55:01;;;;;;;36.92;34.92;;;;;;;;;;5048583;28;20340;-69
2022/07/09 08:57:26;;;;;;;35.42;33.63;;;;;;;;;;5048080;28;20040;-69
2022/07/09 08:59:52;;;;;;;27.63;26.13;;;;;;;;;;5048274;28;20064;-68
2022/07/09 09:02:19;;;;;;;24.88;23.45;;;;;;;;;;5049061;28;20052;-68
2022/07/09 09:04:45;;;;;;;21.08;19.98;;;;;;;;;;5047943;28;20025;-68
2022/07/09 09:07:18;;;;;;;26.60;24.98;;;;;;;;;;5047700;28;20041;-68
2022/07/09 09:09:44;;;;;;;22.63;21.40;;;;;;;;;;5048545;28;20029;-68
2022/07/09 09:12:11;;;;;;;24.23;22.73;;;;;;;;;;5047796;28;20108;-68
2022/07/09 09:14:36;;;;;;;25.33;24.00;;;;;;;;;;5046897;28;20025;-68
2022/07/09 09:17:05;;;;;;;23.80;22.50;;;;;;;;;;5047609;28;20371;-68
2022/07/09 09:19:30;;;;;;;22.42;21.23;;;;;;;;;;5048445;28;20056;-68
2022/07/09 09:21:56;;;;;;;24.60;23.30;;;;;;;;;;5046102;28;20501;-68
2022/07/09 09:24:29;;;;;;;22.90;21.67;;;;;;;;;;5048051;28;20025;-68
2022/07/09 09:26:58;;;;;;;28.30;26.83;;;;;;;;;;5046512;28;20025;-68
2022/07/09 09:29:24;;;;;;;23.67;22.38;;;;;;;;;;5047613;28;20044;-68
2022/07/09 09:31:50;;;;;;;32.65;30.95;;;;;;;;;;5046983;28;20033;-67
2022/07/09 09:34:17;;;;;;;26.70;25.30;;;;;;;;;;5046640;28;20048;-67
2022/07/09 09:36:44;;;;;;;44.05;41.85;;;;;;;;;;5047611;28;20029;-68
2022/07/09 09:39:24;;;;;;;35.10;33.30;;;;;;;;;;5048168;28;20088;-68
2022/07/09 09:42:01;;;;;;;53.83;51.10;;;;;;;;;;5029946;28;20060;-68
2022/07/09 09:44:30;;;;;;;53.53;50.83;;;;;;;;;;5047770;28;20056;-68
2022/07/09 09:46:57;;;;;;;41.90;39.75;;;;;;;;;;5047615;28;20029;-68
2022/07/09 09:49:23;;;;;;;52.50;49.80;;;;;;;;;;5046741;28;20355;-68
2022/07/09 09:51:56;;;;;;;48.40;45.92;;;;;;;;;;5047648;28;20059;-68
2022/07/09 09:54:22;;;;;;;42.17;40.05;;;;;;;;;;5047615;28;20033;-68
2022/07/09 09:56:49;;;;;;;36.63;34.72;;;;;;;;;;5048118;28;20194;-68
2022/07/09 09:59:15;;;;;;;45.53;43.17;;;;;;;;;;5046645;28;20025;-67
2022/07/09 10:01:42;;;;;;;42.50;40.35;;;;;;;;;;5047612;28;20048;-67
2022/07/09 10:04:11;;;;;;;74.07;70.43;;;;;;;;;;5047218;28;20033;-68
2022/07/09 10:06:37;;;;;;;96.53;91.78;;;;;;;;;;5045783;28;20541;-67
2022/07/09 10:09:04;;;;;;;114.07;108.47;;;;;;;;;;5047428;28;20041;-67
2022/07/09 10:11:42;;;;;;;115.80;110.10;;;;;;;;;;5047019;28;20070;-67
2022/07/09 10:14:15;;;;;;;84.68;80.53;;;;;;;;;;5046402;28;20047;-68
2022/07/09 10:16:41;;;;;;;162.40;154.50;;;;;;;;;;5046992;28;20041;-67
2022/07/09 10:19:06;;;;;;;179.50;170.80;;;;;;;;;;5047430;28;20102;-67
2022/07/09 10:21:40;;;;;;;174.00;165.52;;;;;;;;;;5046566;28;20751;-67
2022/07/09 10:24:08;;;;;;;157.13;149.43;;;;;;;;;;5046930;28;20107;-68
2022/07/09 10:26:38;;;;;;;159.57;151.75;;;;;;;;;;5046595;28;20300;-68
2022/07/09 10:29:16;;;;;;;;;;;;;;;;;;5047317;28;20025;-67
2022/07/09 10:31:43;;;;;;;132.10;125.65;;;;;;;;;;5046751;28;20385;-67
2022/07/09 10:34:15;;;;;;;162.73;154.73;;;;;;;;;;5047191;28;20044;-67
2022/07/09 10:37:07;;;;;;;159.05;151.25;;;;;;;;;;5046997;28;20063;-67
2022/07/09 10:39:34;;;;;;;123.50;117.45;;;;;;;;;;5044820;28;20466;-67
2022/07/09 10:42:05;;;;;;;114.35;108.78;;;;;;;;;;5046833;28;20035;-66
2022/07/09 10:44:35;;;;;;;119.40;113.57;;;;;;;;;;5047146;28;20024;-67
2022/07/09 10:47:00;;;;;;;96.53;91.82;;;;;;;;;;5046451;28;20029;-66
2022/07/09 10:49:27;;;;;;;91.28;86.78;;;;;;;;;;5046851;28;20048;-67
2022/07/09 10:51:58;;;;;;;106.13;100.93;;;;;;;;;;5046920;28;20033;-67
2022/07/09 10:54:25;;;;;;;108.70;103.40;;;;;;;;;;5046478;28;20061;-67
2022/07/09 10:56:50;;;;;;;106.22;101.00;;;;;;;;;;5046758;28;20410;-67
2022/07/09 10:59:17;;;;;;;115.25;109.60;;;;;;;;;;5046154;28;20029;-67
2022/07/09 11:01:43;;;;;;;127.30;121.03;;;;;;;;;;5046764;28;20040;-66
2022/07/09 11:04:08;;;;;;;111.15;105.68;;;;;;;;;;5046825;28;20459;-67
2022/07/09 11:06:44;;;;;;;128.60;122.25;;;;;;;;;;5045536;28;20068;-67
2022/07/09 11:09:14;;;;;;;111.68;106.20;;;;;;;;;;5045459;28;20035;-67
2022/07/09 11:11:42;;;;;;;122.97;116.88;;;;;;;;;;5046714;28;20502;-67
2022/07/09 11:14:09;;;;;;;124.85;118.75;;;;;;;;;;5046966;28;20045;-67
2022/07/09 11:16:34;;;;;;;124.22;118.07;;;;;;;;;;5044047;28;20021;-66
2022/07/09 11:19:00;;;;;;;128.25;121.85;;;;;;;;;;5046325;28;20482;-67
2022/07/09 11:21:26;;;;;;;111.22;105.72;;;;;;;;;;5045823;28;20024;-67
2022/07/09 11:23:52;;;;;;;127.05;120.75;;;;;;;;;;5046570;28;20233;-67
2022/07/09 11:26:18;;;;;;;113.15;107.53;;;;;;;;;;5045174;28;20700;-66
2022/07/09 11:28:44;;;;;;;110.82;105.35;;;;;;;;;;5046567;28;20082;-67
2022/07/09 11:31:09;;;;;;;120.55;114.55;;;;;;;;;;5045717;28;20374;-67
2022/07/09 11:36:21;;;;;;;130.40;124.00;;;;;;;;;;5045795;28;20029;-66
2022/07/09 11:38:50;;;;;;;126.82;120.57;;;;;;;;;;5046004;28;20514;-67
2022/07/09 11:41:16;;;;;;;105.90;100.65;;;;;;;;;;5046081;28;20635;-66
2022/07/09 11:43:51;;;;;;;127.68;121.38;;;;;;;;;;5046508;28;20029;-67
2022/07/09 11:46:21;;;;;;;129.73;123.32;;;;;;;;;;5045863;28;20037;-66
2022/07/09 11:48:53;;;;;;;126.05;119.78;;;;;;;;;;5046473;28;20017;-67
2022/07/09 11:51:32;;;;;;;112.63;107.03;;;;;;;;;;5046632;28;20037;-66
2022/07/09 11:53:58;;;;;;;87.07;82.35;;;;;;;;;;5046208;28;20025;-67
2022/07/09 11:56:23;;;;;;;105.75;100.55;;;;;;;;;;5045141;28;20354;-66
2022/07/09 11:58:50;;;;;;;91.78;87.28;;;;;;;;;;5045500;28;20039;-67
2022/07/09 12:01:16;;;;;;;94.03;89.43;;;;;;;;;;5045782;28;20025;-66
2022/07/09 12:03:48;;;;;;;96.22;91.50;;;;;;;;;;5045914;28;20036;-67
2022/07/09 12:06:14;;;;;;;110.68;105.22;;;;;;;;;;5045368;28;20036;-66
2022/07/09 12:08:40;;;;;;;87.57;83.28;;;;;;;;;;5046024;28;20060;-66
2022/07/09 12:11:05;;;;;;;82.18;78.07;;;;;;;;;;5046433;28;20159;-66
2022/07/09 12:13:31;;;;;;;97.65;92.85;;;;;;;;;;5044796;28;20517;-66
2022/07/09 12:15:56;;;;;;;84.28;80.07;;;;;;;;;;5045554;28;20045;-66
2022/07/09 12:18:22;;;;;;;97.35;92.55;;;;;;;;;;5045322;28;20064;-67
2022/07/09 12:20:47;;;;;;;90.30;85.82;;;;;;;;;;5045848;28;20032;-66
2022/07/09 12:23:12;;;;;;;91.43;86.93;;;;;;;;;;5049618;28;20305;-66
2022/07/09 12:25:39;;;;;;;85.70;81.47;;;;;;;;;;5049571;28;20419;-66
2022/07/09 12:28:04;;;;;;;89.70;85.30;;;;;;;;;;5049329;28;20374;-66
2022/07/09 12:30:30;;;;;;;87.15;82.88;;;;;;;;;;5048069;28;20055;-66
2022/07/09 12:32:58;;;;;;;86.15;81.90;;;;;;;;;;5049182;28;20028;-67
2022/07/09 12:35:24;;;;;;;86.20;81.93;;;;;;;;;;5048909;28;20458;-66
2022/07/09 12:37:50;;;;;;;85.78;81.55;;;;;;;;;;5048334;28;20040;-67
2022/07/09 12:40:15;;;;;;;85.57;81.28;;;;;;;;;;5048768;28;20028;-67
2022/07/09 12:42:41;;;;;;;92.70;88.13;;;;;;;;;;5049643;28;20453;-66
2022/07/09 12:45:07;;;;;;;91.05;86.57;;;;;;;;;;5048601;28;20442;-67
2022/07/09 12:47:33;;;;;;;89.22;84.82;;;;;;;;;;5048930;28;20053;-67
2022/07/09 12:49:58;;;;;;;97.97;93.15;;;;;;;;;;5047337;28;20029;-66
2022/07/09 12:52:26;;;;;;;111.70;106.22;;;;;;;;;;5048833;28;20131;-67
2022/07/09 12:54:52;;;;;;;119.90;114.00;;;;;;;;;;5049312;28;20063;-67
2022/07/09 12:57:17;;;;;;;127.60;121.32;;;;;;;;;;5048489;28;20060;-67
2022/07/09 12:59:42;;;;;;;131.80;125.30;;;;;;;;;;5048442;28;20063;-67
2022/07/09 13:02:08;;;;;;;135.07;128.43;;;;;;;;;;5049122;28;20056;-67
2022/07/09 13:04:34;;;;;;;135.32;128.65;;;;;;;;;;5048585;28;20032;-67
2022/07/09 13:07:00;;;;;;;130.95;124.50;;;;;;;;;;5047240;28;20463;-67
2022/07/09 13:09:25;;;;;;;133.88;127.28;;;;;;;;;;5047840;28;20375;-67
2022/07/09 13:11:51;;;;;;;135.65;129.00;;;;;;;;;;5047981;28;20040;-67
2022/07/09 13:14:16;;;;;;;135.88;129.18;;;;;;;;;;5047552;28;20044;-67
2022/07/09 13:16:42;;;;;;;137.27;130.25;;;;;;;;;;5047696;28;20021;-67
2022/07/09 13:19:07;;;;;;;139.25;132.30;;;;;;;;;;5047908;28;20428;-67
2022/07/09 13:21:33;;;;;;;123.57;117.50;;;;;;;;;;5047946;28;20383;-67
2022/07/09 13:23:58;;;;;;;112.50;107.00;;;;;;;;;;5048287;28;20044;-67
2022/07/09 13:26:24;;;;;;;110.63;105.18;;;;;;;;;;5046765;28;20167;-68
2022/07/09 13:28:49;;;;;;;83.68;79.55;;;;;;;;;;5048381;28;20029;-67
2022/07/09 13:31:15;;;;;;;83.38;79.25;;;;;;;;;;5047074;28;20063;-68
2022/07/09 13:33:40;;;;;;;104.30;99.20;;;;;;;;;;5048500;28;20032;-67
2022/07/09 13:36:06;;;;;;;108.57;103.22;;;;;;;;;;5047913;28;20192;-68
2022/07/09 13:38:33;;;;;;;119.53;113.65;;;;;;;;;;5047162;28;20045;-68
2022/07/09 13:40:58;;;;;;;100.82;95.88;;;;;;;;;;5048059;28;20108;-68
2022/07/09 13:43:25;;;;;;;87.07;82.75;;;;;;;;;;5048341;28;20262;-69
2022/07/09 13:45:51;;;;;;;107.38;102.07;;;;;;;;;;5048197;28;20041;-69
2022/07/09 13:48:16;;;;;;;109.30;103.90;;;;;;;;;;5046880;28;20043;-68
2022/07/09 13:50:42;;;;;;;108.03;102.72;;;;;;;;;;5047461;28;20493;-69
2022/07/09 13:53:07;;;;;;;113.20;107.60;;;;;;;;;;5047999;28;20115;-68
2022/07/09 13:55:32;;;;;;;103.53;98.45;;;;;;;;;;5048042;28;20626;-70
2022/07/09 13:57:58;;;;;;;88.20;83.85;;;;;;;;;;5046056;28;20471;-69
2022/07/09 14:00:23;;;;;;;89.78;85.38;;;;;;;;;;5047899;28;20083;-69
2022/07/09 14:02:49;;;;;;;74.38;70.68;;;;;;;;;;5048269;28;20430;-69
2022/07/09 14:05:15;;;;;;;86.57;82.30;;;;;;;;;;5046858;28;20459;-69
2022/07/09 14:07:40;;;;;;;76.30;72.50;;;;;;;;;;5047636;28;20257;-69
2022/07/09 14:10:06;;;;;;;71.22;67.68;;;;;;;;;;5046148;28;20024;-69
2022/07/09 14:12:31;;;;;;;82.25;78.18;;;;;;;;;;5047118;28;20055;-69
2022/07/09 14:14:58;;;;;;;73.43;69.78;;;;;;;;;;5046960;28;20029;-69
2022/07/09 14:17:24;;;;;;;85.30;81.10;;;;;;;;;;5046186;28;20641;-70
2022/07/09 14:19:49;;;;;;;76.13;72.35;;;;;;;;;;5046505;28;20119;-69